Time;durP1;ratioP1;P1;durP2;ratioP2;P2;SDS_P1;SDS_P2;PMS_P1;PMS_P2;Temp;Humidity;BMP_temperature;BMP_pressure;BME280_temperature;BME280_humidity;BME280_pressure;Samples;Min_cycle;Max_cycle;Signal;HPM_P1;HPM_P2
2023/12/01 00:00:14;;;;;;;6.05;5.55;;;3.60;99.90;;;;;;5022643;28;20199;-71
2023/12/01 00:02:43;;;;;;;6.00;5.50;;;3.50;99.90;;;;;;5022062;28;20220;-72
2023/12/01 00:05:10;;;;;;;7.13;6.43;;;3.50;99.90;;;;;;5021740;28;20615;-73
2023/12/01 00:07:38;;;;;;;6.85;6.35;;;3.50;99.90;;;;;;5010931;28;20232;-72
2023/12/01 00:10:05;;;;;;;6.70;6.10;;;3.40;99.90;;;;;;4968534;28;20757;-72
2023/12/01 00:12:32;;;;;;;6.43;5.85;;;3.50;99.90;;;;;;5003054;28;20220;-72
2023/12/01 00:15:00;;;;;;;6.25;5.75;;;3.50;99.90;;;;;;5003732;28;20299;-72
2023/12/01 00:17:27;;;;;;;6.60;6.10;;;3.50;99.90;;;;;;5004309;28;20228;-72
2023/12/01 00:19:56;;;;;;;6.07;5.57;;;3.60;99.90;;;;;;4985053;28;20208;-72
2023/12/01 00:22:23;;;;;;;6.20;5.70;;;3.60;99.90;;;;;;5004791;28;20735;-72
2023/12/01 00:24:50;;;;;;;6.00;5.50;;;3.60;99.90;;;;;;5004110;28;20744;-72
2023/12/01 00:27:18;;;;;;;6.13;5.53;;;3.60;99.90;;;;;;5003393;28;20607;-72
2023/12/01 00:29:45;;;;;;;6.15;5.72;;;3.60;99.90;;;;;;5002791;28;20204;-72
2023/12/01 00:32:12;;;;;;;6.00;5.53;;;3.70;99.90;;;;;;5005029;28;20220;-72
2023/12/01 00:34:40;;;;;;;6.65;6.10;;;3.60;99.90;;;;;;4984799;28;20960;-73
2023/12/01 00:37:09;;;;;;;5.63;5.13;;;3.60;99.90;;;;;;5003492;28;20244;-72
2023/12/01 00:39:36;;;;;;;6.28;5.78;;;3.60;99.90;;;;;;5003758;28;20239;-72
2023/12/01 00:42:04;;;;;;;6.13;5.63;;;3.60;99.90;;;;;;4985452;28;20299;-72
2023/12/01 00:44:31;;;;;;;6.55;5.97;;;3.70;99.90;;;;;;5008337;28;20208;-72
2023/12/01 00:46:58;;;;;;;6.63;6.03;;;3.70;99.90;;;;;;5006054;28;20302;-72
2023/12/01 00:49:25;;;;;;;6.22;5.72;;;3.70;99.90;;;;;;5007949;28;20205;-72
2023/12/01 00:51:52;;;;;;;6.50;5.95;;;3.70;99.90;;;;;;5007807;28;20227;-72
2023/12/01 00:54:21;;;;;;;6.00;5.45;;;3.70;99.90;;;;;;5004945;28;20211;-72
2023/12/01 00:56:48;;;;;;;6.00;5.50;;;3.70;99.90;;;;;;5003917;28;20657;-72
2023/12/01 00:59:16;;;;;;;6.57;6.07;;;3.70;99.90;;;;;;4987967;28;20216;-72
2023/12/01 01:01:43;;;;;;;5.78;5.25;;;3.70;99.90;;;;;;5006226;28;20219;-72
2023/12/01 01:04:10;;;;;;;5.85;5.35;;;3.70;99.90;;;;;;5024975;28;20206;-72
2023/12/01 01:06:38;;;;;;;6.22;5.72;;;3.80;99.90;;;;;;5007146;28;20265;-72
2023/12/01 01:09:05;;;;;;;7.18;6.47;;;3.80;99.90;;;;;;5024671;28;20206;-73
2023/12/01 01:11:33;;;;;;;6.60;6.00;;;3.70;99.90;;;;;;5023611;28;20888;-72
2023/12/01 01:14:00;;;;;;;5.78;5.30;;;3.70;99.90;;;;;;5026204;28;20306;-73
2023/12/01 01:16:27;;;;;;;5.93;5.53;;;3.70;99.90;;;;;;5022613;28;20282;-72
2023/12/01 01:18:54;;;;;;;6.10;5.70;;;3.70;99.90;;;;;;5025573;28;20254;-72
2023/12/01 01:21:21;;;;;;;6.40;5.90;;;3.70;99.90;;;;;;5006984;28;20203;-72
2023/12/01 01:23:49;;;;;;;5.80;5.30;;;3.70;99.90;;;;;;5008242;28;20214;-72
2023/12/01 01:26:16;;;;;;;6.10;5.60;;;3.70;99.90;;;;;;5023880;28;20215;-72
2023/12/01 01:28:44;;;;;;;5.63;5.28;;;3.70;99.90;;;;;;5006013;28;20425;-72
2023/12/01 01:31:12;;;;;;;5.93;5.43;;;3.70;99.90;;;;;;5009136;28;20200;-72
2023/12/01 01:33:39;;;;;;;5.68;5.28;;;3.70;99.90;;;;;;5006140;28;20226;-72
2023/12/01 01:36:07;;;;;;;6.38;5.88;;;3.80;99.90;;;;;;5018909;28;20227;-72
2023/12/01 01:38:34;;;;;;;6.05;5.55;;;3.80;99.90;;;;;;5023979;28;20222;-72
2023/12/01 01:41:01;;;;;;;6.28;5.78;;;3.80;99.90;;;;;;5024290;28;20199;-72
2023/12/01 01:43:29;;;;;;;5.97;5.57;;;3.80;99.90;;;;;;5023105;28;20314;-72
2023/12/01 01:46:02;;;;;;;5.78;5.32;;;3.80;99.90;;;;;;5025780;28;20203;-71
2023/12/01 01:48:30;;;;;;;6.05;5.55;;;3.90;99.90;;;;;;5024326;28;20227;-72
2023/12/01 01:50:58;;;;;;;5.38;4.97;;;3.90;99.90;;;;;;5025177;28;20215;-72
2023/12/01 01:53:26;;;;;;;5.72;5.32;;;3.90;99.90;;;;;;5007775;28;20266;-72
2023/12/01 01:55:54;;;;;;;7.60;6.40;;;3.90;99.90;;;;;;5024896;28;20208;-72
2023/12/01 01:58:21;;;;;;;6.50;6.00;;;3.90;99.90;;;;;;4991372;28;20806;-72
2023/12/01 02:00:50;;;;;;;5.93;5.43;;;3.80;99.90;;;;;;5024944;28;20215;-72
2023/12/01 02:03:20;;;;;;;6.05;5.55;;;3.70;99.90;;;;;;5023317;28;20926;-72
2023/12/01 02:05:47;;;;;;;5.88;5.40;;;3.70;99.90;;;;;;5021283;28;20887;-72
2023/12/01 02:08:23;;;;;;;6.18;5.63;;;3.70;99.90;;;;;;5009254;28;20227;-73
2023/12/01 02:10:50;;;;;;;6.15;5.65;;;3.70;99.90;;;;;;5022836;28;20685;-72
2023/12/01 02:13:17;;;;;;;5.68;5.13;;;3.70;99.90;;;;;;5006943;28;20234;-72
2023/12/01 02:15:45;;;;;;;6.53;5.93;;;3.70;99.90;;;;;;5025473;28;20210;-72
2023/12/01 02:18:22;;;;;;;6.03;5.53;;;3.70;99.90;;;;;;5021124;28;20235;-72
2023/12/01 02:20:49;;;;;;;6.15;5.65;;;3.60;99.90;;;;;;5022523;28;20207;-72
2023/12/01 02:23:18;;;;;;;6.20;5.70;;;3.60;99.90;;;;;;5018013;28;20226;-72
2023/12/01 02:25:45;;;;;;;6.40;5.90;;;3.60;99.90;;;;;;5024600;28;20215;-72
2023/12/01 02:28:12;;;;;;;6.20;5.70;;;3.60;99.90;;;;;;5001203;28;20228;-72
2023/12/01 02:30:41;;;;;;;5.80;5.40;;;3.60;99.90;;;;;;5004874;28;20689;-72
2023/12/01 02:33:08;;;;;;;6.93;6.22;;;3.60;99.90;;;;;;5002006;28;20290;-72
2023/12/01 02:35:37;;;;;;;5.50;5.10;;;3.70;99.90;;;;;;5002202;28;20229;-72
2023/12/01 02:38:04;;;;;;;6.03;5.53;;;3.70;99.90;;;;;;5004506;28;20221;-73
2023/12/01 02:40:33;;;;;;;6.25;5.75;;;3.70;99.90;;;;;;5002521;28;20201;-72
2023/12/01 02:43:00;;;;;;;6.65;5.97;;;3.70;99.90;;;;;;5002294;28;21088;-72
2023/12/01 02:45:29;;;;;;;6.10;5.65;;;3.70;99.90;;;;;;5003526;28;20204;-72
2023/12/01 02:47:56;;;;;;;6.10;5.60;;;3.70;99.90;;;;;;5002303;28;20244;-72
2023/12/01 02:50:23;;;;;;;6.15;5.57;;;3.70;99.90;;;;;;5006123;28;20208;-72
2023/12/01 02:52:51;;;;;;;6.15;5.65;;;3.70;99.90;;;;;;5004308;28;20803;-73
2023/12/01 02:55:18;;;;;;;5.85;5.45;;;3.60;99.90;;;;;;5004300;28;20209;-72
2023/12/01 02:57:47;;;;;;;5.53;5.13;;;3.60;99.90;;;;;;5006753;28;20591;-73
2023/12/01 03:00:15;;;;;;;5.93;5.53;;;3.60;99.90;;;;;;5002102;28;20211;-73
2023/12/01 03:02:42;;;;;;;6.43;5.88;;;3.70;99.90;;;;;;5015343;28;20218;-72
2023/12/01 03:05:11;;;;;;;6.32;5.82;;;3.70;99.90;;;;;;5023649;28;20199;-72
2023/12/01 03:07:40;;;;;;;6.35;5.85;;;3.70;99.90;;;;;;4993715;28;20630;-72
2023/12/01 03:10:08;;;;;;;6.00;5.50;;;3.70;99.90;;;;;;5003725;28;20208;-72
2023/12/01 03:12:35;;;;;;;5.90;5.40;;;3.70;99.90;;;;;;5004869;28;20224;-72
2023/12/01 03:15:05;;;;;;;6.32;5.72;;;3.70;99.90;;;;;;5006255;28;20207;-72
2023/12/01 03:17:32;;;;;;;5.88;5.45;;;3.70;99.90;;;;;;5008227;28;20857;-72
2023/12/01 03:20:00;;;;;;;5.97;5.43;;;3.70;99.90;;;;;;4985064;28;20203;-72
2023/12/01 03:22:27;;;;;;;6.90;6.35;;;3.60;99.90;;;;;;4987781;28;20709;-72
2023/12/01 03:24:54;;;;;;;6.07;5.57;;;3.60;99.90;;;;;;5005553;28;20212;-72
2023/12/01 03:27:21;;;;;;;6.45;5.80;;;3.60;99.90;;;;;;5006298;28;20220;-72
2023/12/01 03:29:49;;;;;;;5.72;5.32;;;3.60;99.90;;;;;;5004752;28;20212;-72
2023/12/01 03:32:20;;;;;;;6.30;5.90;;;3.60;99.90;;;;;;5005954;28;20243;-73
2023/12/01 03:34:48;;;;;;;6.25;5.65;;;3.60;99.90;;;;;;5005963;28;20200;-72
2023/12/01 03:37:15;;;;;;;6.35;5.85;;;3.70;99.90;;;;;;4988104;28;20228;-72
2023/12/01 03:39:42;;;;;;;6.57;6.07;;;3.70;99.90;;;;;;5003274;28;20204;-72
2023/12/01 03:42:10;;;;;;;6.55;6.03;;;3.70;99.90;;;;;;5000276;28;20224;-72
2023/12/01 03:44:37;;;;;;;5.93;5.43;;;3.60;99.90;;;;;;5002195;28;20232;-72
2023/12/01 03:47:05;;;;;;;5.70;5.20;;;3.60;99.90;;;;;;5004820;28;20238;-72
2023/12/01 03:49:34;;;;;;;5.88;5.40;;;3.60;99.90;;;;;;5004083;28;20205;-72
2023/12/01 03:52:01;;;;;;;5.82;5.43;;;3.60;99.90;;;;;;5002958;28;20227;-72
2023/12/01 03:54:28;;;;;;;5.43;5.03;;;3.70;99.90;;;;;;5007564;28;20207;-72
2023/12/01 03:56:55;;;;;;;5.68;5.28;;;3.70;99.90;;;;;;4970955;28;20225;-72
2023/12/01 03:59:22;;;;;;;6.03;5.63;;;3.70;99.90;;;;;;5002079;28;20196;-72
2023/12/01 04:01:49;;;;;;;6.45;5.95;;;3.70;99.90;;;;;;5002510;28;20660;-72
2023/12/01 04:04:16;;;;;;;6.55;5.95;;;3.70;99.90;;;;;;5004311;28;20211;-72
2023/12/01 04:06:45;;;;;;;6.07;5.53;;;3.70;99.90;;;;;;5002946;28;20227;-72
2023/12/01 04:09:12;;;;;;;6.00;5.60;;;3.70;99.90;;;;;;5007518;28;20669;-72
2023/12/01 04:11:39;;;;;;;5.50;5.10;;;3.70;99.90;;;;;;5007316;28;20250;-72
2023/12/01 04:14:06;;;;;;;6.32;5.82;;;3.70;99.90;;;;;;5008127;28;20712;-72
2023/12/01 04:16:34;;;;;;;5.80;5.40;;;3.70;99.90;;;;;;5003870;28;20641;-72
2023/12/01 04:19:01;;;;;;;6.32;5.72;;;3.70;99.90;;;;;;5005075;28;20291;-72
2023/12/01 04:21:28;;;;;;;5.72;5.28;;;3.70;99.90;;;;;;5004733;28;20203;-73
2023/12/01 04:23:57;;;;;;;5.53;5.13;;;3.80;99.90;;;;;;5000802;28;20774;-72
2023/12/01 04:26:24;;;;;;;7.97;6.35;;;3.80;99.90;;;;;;4983380;28;20209;-72
2023/12/01 04:28:52;;;;;;;6.80;6.30;;;3.80;99.90;;;;;;5023280;28;20779;-72
2023/12/01 04:31:19;;;;;;;6.65;6.15;;;3.70;99.90;;;;;;5022709;28;20207;-72
2023/12/01 04:33:46;;;;;;;6.53;6.03;;;3.60;99.90;;;;;;5023995;28;20200;-72
2023/12/01 04:36:14;;;;;;;6.28;5.78;;;3.60;99.90;;;;;;5022025;28;20298;-72
2023/12/01 04:38:42;;;;;;;6.70;6.10;;;3.60;99.90;;;;;;5020778;28;20227;-72
2023/12/01 04:41:11;;;;;;;6.38;5.88;;;3.60;99.90;;;;;;5023584;28;20204;-72
2023/12/01 04:43:40;;;;;;;6.07;5.57;;;3.60;99.90;;;;;;5004982;28;20215;-73
2023/12/01 04:46:08;;;;;;;6.25;5.65;;;3.60;99.90;;;;;;5023327;28;20200;-73
2023/12/01 04:48:35;;;;;;;5.90;5.50;;;3.60;99.90;;;;;;5020616;28;20835;-73
2023/12/01 04:51:03;;;;;;;6.13;5.57;;;3.60;99.90;;;;;;5005181;28;20259;-72
2023/12/01 04:53:30;;;;;;;6.72;5.80;;;3.60;99.90;;;;;;5022120;28;20223;-73
2023/12/01 04:55:58;;;;;;;6.90;6.30;;;3.60;99.90;;;;;;5023204;28;20235;-73
2023/12/01 04:58:27;;;;;;;6.68;6.10;;;3.60;99.90;;;;;;4985386;28;20227;-73
2023/12/01 05:00:54;;;;;;;6.88;6.28;;;3.60;99.90;;;;;;4983538;28;20208;-73
2023/12/01 05:03:21;;;;;;;6.75;6.13;;;3.60;99.90;;;;;;5001117;28;20718;-73
2023/12/01 05:05:48;;;;;;;6.70;6.20;;;3.60;99.90;;;;;;4983080;28;20216;-73
2023/12/01 05:08:15;;;;;;;6.07;5.63;;;3.50;99.90;;;;;;5002492;28;20216;-73
2023/12/01 05:10:44;;;;;;;6.05;5.55;;;3.50;99.90;;;;;;5000328;28;20196;-73
2023/12/01 05:13:14;;;;;;;5.95;5.50;;;3.60;99.90;;;;;;5002598;28;20224;-72
2023/12/01 05:15:43;;;;;;;5.95;5.40;;;3.50;99.90;;;;;;4988205;28;20254;-72
2023/12/01 05:18:11;;;;;;;6.47;5.93;;;3.60;99.90;;;;;;4983776;28;20220;-72
2023/12/01 05:20:37;;;;;;;6.60;6.10;;;3.60;99.90;;;;;;4985646;28;20292;-72
2023/12/01 05:23:09;;;;;;;6.13;5.63;;;3.60;99.90;;;;;;5015656;28;20588;-72
2023/12/01 05:25:38;;;;;;;6.53;6.03;;;3.70;99.90;;;;;;5003982;28;20210;-72
2023/12/01 05:28:06;;;;;;;5.90;5.35;;;3.70;99.90;;;;;;5021156;28;20227;-72
2023/12/01 05:30:34;;;;;;;6.65;6.15;;;3.70;99.90;;;;;;5025889;28;20200;-72
2023/12/01 05:33:04;;;;;;;6.20;5.70;;;3.70;99.90;;;;;;5008225;28;20236;-72
2023/12/01 05:35:32;;;;;;;6.50;6.00;;;3.70;99.90;;;;;;5004396;28;20212;-72
2023/12/01 05:38:00;;;;;;;6.70;6.10;;;3.70;99.90;;;;;;5007549;28;20399;-72
2023/12/01 05:40:28;;;;;;;6.32;5.82;;;3.60;99.90;;;;;;5007433;28;20686;-72
2023/12/01 05:42:56;;;;;;;6.38;5.88;;;3.60;99.90;;;;;;5018435;28;20220;-72
2023/12/01 05:45:24;;;;;;;6.28;5.78;;;3.60;99.90;;;;;;5008102;28;20203;-72
2023/12/01 05:47:53;;;;;;;6.28;5.68;;;3.70;99.90;;;;;;5024295;28;20765;-72
2023/12/01 05:50:23;;;;;;;5.68;5.22;;;3.70;99.90;;;;;;5024541;28;20286;-72
2023/12/01 05:52:52;;;;;;;6.65;6.15;;;3.70;99.90;;;;;;5025321;28;20227;-72
2023/12/01 05:55:20;;;;;;;6.65;6.15;;;3.80;99.90;;;;;;5027213;28;20250;-73
2023/12/01 05:57:49;;;;;;;6.82;6.22;;;3.80;99.90;;;;;;5027608;28;20230;-72
2023/12/01 06:00:18;;;;;;;6.63;6.03;;;3.80;99.90;;;;;;5026609;28;20258;-72
2023/12/01 06:02:46;;;;;;;5.90;5.40;;;3.70;99.90;;;;;;5024865;28;20242;-72
2023/12/01 06:05:13;;;;;;;6.00;5.50;;;3.70;99.90;;;;;;4992835;28;20209;-72
2023/12/01 06:07:45;;;;;;;7.03;6.43;;;3.70;99.90;;;;;;5026048;28;20242;-72
2023/12/01 06:10:12;;;;;;;5.60;5.10;;;3.70;99.90;;;;;;5005945;28;20231;-72
2023/12/01 06:12:40;;;;;;;6.65;6.15;;;3.70;99.90;;;;;;5024449;28;20250;-73
2023/12/01 06:15:09;;;;;;;6.35;5.82;;;3.80;99.90;;;;;;5032310;28;20214;-73
2023/12/01 06:17:37;;;;;;;6.20;5.70;;;3.80;99.90;;;;;;5037323;28;20671;-71
2023/12/01 06:20:05;;;;;;;6.53;5.93;;;3.80;99.90;;;;;;5027356;28;20198;-72
2023/12/01 06:22:32;;;;;;;6.50;6.00;;;3.90;99.90;;;;;;5027469;28;20597;-72
2023/12/01 06:25:01;;;;;;;6.38;5.88;;;3.90;99.90;;;;;;5024650;28;20811;-73
2023/12/01 06:27:28;;;;;;;6.30;5.80;;;3.90;99.90;;;;;;5026451;28;20814;-72
2023/12/01 06:29:55;;;;;;;6.68;6.07;;;3.90;99.90;;;;;;5025471;28;20542;-72
2023/12/01 06:32:22;;;;;;;6.60;6.10;;;3.80;99.90;;;;;;5024780;28;20315;-72
2023/12/01 06:34:50;;;;;;;6.82;6.32;;;3.90;99.90;;;;;;5023696;28;20211;-72
2023/12/01 06:37:17;;;;;;;6.32;5.82;;;3.80;99.90;;;;;;5025303;28;20229;-72
2023/12/01 06:39:45;;;;;;;5.85;5.35;;;3.80;99.90;;;;;;5005541;28;20283;-72
2023/12/01 06:42:13;;;;;;;7.28;6.68;;;3.80;99.90;;;;;;5021267;28;20245;-72
2023/12/01 06:44:41;;;;;;;7.00;6.40;;;3.80;99.90;;;;;;5024858;28;20214;-72
2023/12/01 06:47:09;;;;;;;6.30;5.80;;;3.90;99.90;;;;;;5006522;28;20231;-72
2023/12/01 06:49:36;;;;;;;6.13;5.63;;;3.80;99.90;;;;;;5023292;28;20223;-72
2023/12/01 06:52:04;;;;;;;6.93;6.32;;;3.90;99.90;;;;;;5018201;28;20247;-72
2023/12/01 06:54:31;;;;;;;6.82;6.22;;;3.90;99.90;;;;;;5004790;28;20581;-73
2023/12/01 06:57:00;;;;;;;6.32;5.82;;;3.90;99.90;;;;;;5003902;28;20232;-72
2023/12/01 06:59:29;;;;;;;6.43;5.82;;;3.90;99.90;;;;;;5004913;28;20706;-72
2023/12/01 07:01:56;;;;;;;6.70;6.20;;;4.00;99.90;;;;;;4999255;28;20784;-73
2023/12/01 07:04:24;;;;;;;7.70;7.00;;;3.90;99.90;;;;;;5006100;28;20208;-73
2023/12/01 07:06:51;;;;;;;7.32;6.63;;;3.90;99.90;;;;;;5005340;28;20331;-72
2023/12/01 07:09:18;;;;;;;7.28;6.68;;;3.80;99.90;;;;;;5003250;28;20227;-72
2023/12/01 07:11:47;;;;;;;7.13;6.53;;;3.70;99.90;;;;;;4999879;28;20609;-72
2023/12/01 07:14:14;;;;;;;6.95;6.35;;;3.70;99.90;;;;;;5003397;28;20239;-72
2023/12/01 07:16:43;;;;;;;7.07;6.47;;;3.70;99.90;;;;;;5000926;28;20220;-73
2023/12/01 07:19:11;;;;;;;7.05;6.55;;;3.70;99.90;;;;;;5003631;28;20223;-73
2023/12/01 07:21:39;;;;;;;6.82;6.10;;;3.80;99.90;;;;;;4986493;28;20208;-73
2023/12/01 07:24:08;;;;;;;7.13;6.53;;;3.80;99.90;;;;;;5005829;28;20874;-73
2023/12/01 07:26:35;;;;;;;6.68;6.18;;;3.90;99.90;;;;;;4985355;28;20211;-73
2023/12/01 07:29:04;;;;;;;6.97;6.47;;;3.90;99.90;;;;;;5006297;28;20216;-73
2023/12/01 07:31:33;;;;;;;7.55;6.95;;;3.90;99.90;;;;;;5000970;28;20204;-73
2023/12/01 07:34:02;;;;;;;7.30;6.70;;;4.00;99.90;;;;;;5005020;28;20200;-73
2023/12/01 07:36:29;;;;;;;7.68;7.05;;;4.00;99.90;;;;;;5004064;28;20609;-73
2023/12/01 07:38:56;;;;;;;9.77;8.80;;;3.90;99.90;;;;;;5024866;28;20293;-73
2023/12/01 07:41:23;;;;;;;8.68;7.88;;;3.70;99.90;;;;;;5024346;28;20204;-73
2023/12/01 07:43:52;;;;;;;8.02;7.32;;;3.60;99.90;;;;;;5025330;28;20211;-73
2023/12/01 07:46:21;;;;;;;8.07;7.38;;;3.50;99.90;;;;;;5023429;28;21105;-74
2023/12/01 07:48:48;;;;;;;8.43;7.60;;;3.50;99.90;;;;;;5025375;28;20885;-73
2023/12/01 07:51:18;;;;;;;7.95;7.35;;;3.60;99.90;;;;;;5028097;28;20203;-73
2023/12/01 07:53:45;;;;;;;7.95;7.22;;;3.60;99.90;;;;;;5015417;28;20215;-72
2023/12/01 07:56:20;;;;;;;8.07;7.38;;;3.60;99.90;;;;;;5024757;28;20227;-72
2023/12/01 07:58:48;;;;;;;7.40;6.80;;;3.60;99.90;;;;;;5003593;28;20711;-73
2023/12/01 08:01:15;;;;;;;9.75;8.95;;;3.60;99.90;;;;;;4984791;28;20283;-73
2023/12/01 08:03:46;;;;;;;9.38;8.48;;;3.60;99.90;;;;;;4986779;28;20224;-73
2023/12/01 08:06:14;;;;;;;8.88;8.13;;;3.50;99.90;;;;;;4987400;28;20228;-72
2023/12/01 08:08:43;;;;;;;8.25;7.55;;;3.50;99.90;;;;;;5001163;28;20734;-73
2023/12/01 08:11:10;;;;;;;8.80;8.02;;;3.50;99.90;;;;;;5004837;28;20212;-72
2023/12/01 08:13:37;;;;;;;9.18;8.02;;;3.60;99.90;;;;;;5002887;28;20224;-72
2023/12/01 08:16:05;;;;;;;9.18;8.38;;;3.70;99.90;;;;;;5000618;28;20316;-72
2023/12/01 08:18:33;;;;;;;8.35;7.55;;;3.80;99.90;;;;;;4986493;28;20760;-73
2023/12/01 08:21:00;;;;;;;8.40;7.60;;;3.90;99.90;;;;;;5005196;28;20204;-72
2023/12/01 08:23:27;;;;;;;8.88;8.15;;;3.90;99.90;;;;;;5017855;28;20230;-72
2023/12/01 08:25:56;;;;;;;8.30;7.60;;;3.90;99.90;;;;;;5009625;28;20298;-72
2023/12/01 08:29:40;;;;;;;8.77;7.97;;;3.90;99.90;;;;;;5035487;27;2131388;-77
2023/12/01 08:32:07;;;;;;;7.85;7.25;;;4.00;99.90;;;;;;5077224;28;20858;-76
2023/12/01 08:34:34;;;;;;;8.48;7.68;;;4.00;99.90;;;;;;5081989;28;20197;-77
2023/12/01 08:37:02;;;;;;;8.65;7.90;;;4.00;99.90;;;;;;5086614;28;20208;-77
2023/12/01 08:39:30;;;;;;;9.70;8.90;;;4.10;99.90;;;;;;5073997;28;20194;-76
2023/12/01 08:41:57;;;;;;;9.95;9.05;;;4.10;99.90;;;;;;5089025;28;20214;-76
2023/12/01 08:44:24;;;;;;;10.63;9.63;;;4.10;99.90;;;;;;5080543;28;20198;-76
2023/12/01 08:46:53;;;;;;;12.73;10.88;;;4.10;99.90;;;;;;5081336;28;20204;-77
2023/12/01 08:49:20;;;;;;;10.63;9.63;;;4.10;99.90;;;;;;5079203;28;20216;-76
2023/12/01 08:51:47;;;;;;;9.30;8.50;;;4.10;99.90;;;;;;5081691;28;20225;-76
2023/12/01 08:54:14;;;;;;;9.60;8.80;;;4.10;99.90;;;;;;5081558;28;20202;-76
2023/12/01 08:56:42;;;;;;;8.75;7.97;;;4.10;99.90;;;;;;5084704;28;20247;-76
2023/12/01 08:59:09;;;;;;;9.63;8.88;;;4.10;99.90;;;;;;5077309;28;20286;-77
2023/12/01 09:01:36;;;;;;;8.93;8.20;;;4.10;99.90;;;;;;5076571;28;20275;-76
2023/12/01 09:04:05;;;;;;;8.63;7.93;;;4.10;99.90;;;;;;5078957;28;20794;-76
2023/12/01 09:06:32;;;;;;;8.30;7.60;;;4.10;99.90;;;;;;5080309;28;20949;-76
2023/12/01 09:09:00;;;;;;;7.88;7.28;;;4.20;99.90;;;;;;5082359;28;20245;-77
2023/12/01 09:11:27;;;;;;;8.60;7.90;;;4.20;99.90;;;;;;5077844;28;20229;-78
2023/12/01 09:13:54;;;;;;;7.88;7.18;;;4.30;99.90;;;;;;5081714;28;20229;-77
2023/12/01 09:16:23;;;;;;;8.38;7.65;;;4.40;99.90;;;;;;5075639;28;20736;-77
2023/12/01 09:18:50;;;;;;;8.32;7.60;;;4.40;99.90;;;;;;5079793;28;20217;-76
2023/12/01 09:21:19;;;;;;;8.73;7.97;;;4.40;99.90;;;;;;5078267;28;20226;-76
2023/12/01 09:23:46;;;;;;;10.85;9.75;;;4.40;99.90;;;;;;5079874;28;20233;-79
2023/12/01 09:26:18;;;;;;;10.00;9.20;;;4.40;99.90;;;;;;5080535;28;22391;-76
2023/12/01 09:28:45;;;;;;;9.88;8.85;;;4.40;99.90;;;;;;5077424;28;20217;-77
2023/12/01 09:31:13;;;;;;;10.10;9.30;;;4.30;99.90;;;;;;5093105;28;20217;-78
2023/12/01 09:33:40;;;;;;;9.23;8.43;;;4.20;99.90;;;;;;5092169;28;20208;-77
2023/12/01 09:36:08;;;;;;;8.88;8.18;;;4.10;99.90;;;;;;5082193;28;20190;-77
2023/12/01 09:38:37;;;;;;;8.88;8.18;;;4.20;99.90;;;;;;5078866;28;20198;-76
2023/12/01 09:41:04;;;;;;;10.05;9.15;;;4.20;99.90;;;;;;5078916;28;20202;-77
2023/12/01 09:43:32;;;;;;;8.80;8.00;;;4.20;99.90;;;;;;5065954;28;20209;-77
2023/12/01 09:46:01;;;;;;;9.38;8.57;;;4.20;99.90;;;;;;5072784;28;20188;-79
2023/12/01 09:48:33;;;;;;;10.05;9.25;;;4.20;99.90;;;;;;5068876;28;20234;-77
2023/12/01 09:51:00;;;;;;;9.10;8.30;;;4.20;99.90;;;;;;5071905;28;20642;-77
2023/12/01 09:53:27;;;;;;;10.82;9.68;;;4.20;99.90;;;;;;5068856;28;20202;-78
2023/12/01 09:55:56;;;;;;;9.38;8.57;;;4.20;99.90;;;;;;5073279;28;20224;-77
2023/12/01 09:58:26;;;;;;;9.68;8.85;;;4.10;99.90;;;;;;5072116;28;20202;-76
2023/12/01 10:00:53;;;;;;;10.73;8.75;;;4.20;99.90;;;;;;5074022;28;20277;-78
2023/12/01 10:03:20;;;;;;;9.00;8.30;;;4.20;99.90;;;;;;5072353;28;21276;-75
2023/12/01 10:05:47;;;;;;;9.88;9.05;;;4.10;99.90;;;;;;5065206;28;20210;-77
2023/12/01 10:08:17;;;;;;;8.70;8.00;;;4.00;99.90;;;;;;5068560;28;20241;-77
2023/12/01 10:10:44;;;;;;;9.38;8.57;;;4.00;99.90;;;;;;5070971;28;20206;-78
2023/12/01 10:13:13;;;;;;;8.35;7.65;;;4.00;99.90;;;;;;5067904;28;20225;-76
2023/12/01 10:15:40;;;;;;;8.57;7.78;;;4.10;99.90;;;;;;5074210;28;20686;-76
2023/12/01 10:18:12;;;;;;;8.30;7.60;;;4.10;99.90;;;;;;5060724;28;20624;-76
2023/12/01 10:20:40;;;;;;;8.32;7.70;;;4.20;99.90;;;;;;5061074;28;20206;-76
2023/12/01 10:23:18;;;;;;;9.10;8.32;;;4.20;99.90;;;;;;5066311;28;20252;-76
2023/12/01 10:25:48;;;;;;;8.38;7.68;;;4.20;99.90;;;;;;5072389;28;20233;-76
2023/12/01 10:28:17;;;;;;;8.57;7.85;;;4.20;99.90;;;;;;5070568;28;20625;-75
2023/12/01 10:30:54;;;;;;;9.05;8.35;;;4.20;99.90;;;;;;5066909;28;20625;-75
2023/12/01 10:33:22;;;;;;;16.60;8.43;;;4.20;99.90;;;;;;5065678;28;20190;-76
2023/12/01 10:36:02;;;;;;;9.13;8.35;;;4.10;99.90;;;;;;5063318;28;20198;-78
2023/12/01 10:38:30;;;;;;;9.90;9.00;;;4.10;99.90;;;;;;5067844;28;20205;-76
2023/12/01 10:40:59;;;;;;;12.63;9.15;;;4.10;99.90;;;;;;5069912;28;20664;-76
2023/12/01 10:43:28;;;;;;;9.90;8.50;;;4.10;99.90;;;;;;5059622;28;20195;-75
2023/12/01 10:46:00;;;;;;;9.07;8.27;;;4.10;99.90;;;;;;5078621;28;20202;-76
2023/12/01 10:48:29;;;;;;;8.55;7.85;;;4.10;99.90;;;;;;5065072;28;20215;-76
2023/12/01 10:50:56;;;;;;;9.73;8.80;;;4.10;99.90;;;;;;5069638;28;20201;-76
2023/12/01 10:53:25;;;;;;;18.58;9.00;;;4.10;99.90;;;;;;5065464;28;20199;-78
2023/12/01 10:55:55;;;;;;;9.10;8.40;;;4.10;99.90;;;;;;5061612;28;20226;-76
2023/12/01 10:58:23;;;;;;;37.15;9.80;;;4.20;99.90;;;;;;5063696;28;20202;-77
2023/12/01 11:00:53;;;;;;;15.73;8.90;;;4.30;99.90;;;;;;5063624;28;20213;-77
2023/12/01 11:03:22;;;;;;;15.45;9.32;;;4.30;99.90;;;;;;5065992;28;20202;-78
2023/12/01 11:05:56;;;;;;;11.35;9.40;;;4.30;99.90;;;;;;5061611;28;20656;-79
2023/12/01 11:08:36;;;;;;;9.85;9.05;;;4.20;99.90;;;;;;5065861;28;20235;-76
2023/12/01 11:11:16;;;;;;;9.10;8.40;;;4.20;99.90;;;;;;5069595;28;20202;-77
2023/12/01 11:14:04;;;;;;;9.38;8.57;;;4.20;99.90;;;;;;5068184;28;20213;-77
2023/12/01 11:16:34;;;;;;;28.60;10.45;;;4.10;99.90;;;;;;5067482;28;20546;-76
2023/12/01 11:19:01;;;;;;;9.15;8.40;;;4.10;99.90;;;;;;5070785;28;20210;-76
2023/12/01 11:21:29;;;;;;;9.82;8.93;;;4.20;99.90;;;;;;5065342;28;20226;-77
2023/12/01 11:24:17;;;;;;;9.77;8.98;;;4.20;99.90;;;;;;5066160;28;20205;-77
2023/12/01 11:26:44;;;;;;;9.98;9.13;;;4.20;99.90;;;;;;5070125;28;20577;-77
2023/12/01 11:29:28;;;;;;;9.85;8.95;;;4.20;99.90;;;;;;5073296;28;20226;-77
2023/12/01 11:31:58;;;;;;;10.13;9.23;;;4.20;99.90;;;;;;5075722;28;20213;-78
2023/12/01 11:34:25;;;;;;;10.50;9.48;;;4.20;99.90;;;;;;5066560;28;20203;-77
2023/12/01 11:36:54;;;;;;;11.18;10.13;;;4.20;99.90;;;;;;5064637;28;20230;-76
2023/12/01 11:39:23;;;;;;;10.35;9.45;;;4.20;99.90;;;;;;5078814;28;20201;-76
2023/12/01 11:42:13;;;;;;;10.82;9.82;;;4.20;99.90;;;;;;5062094;28;20218;-75
2023/12/01 11:44:42;;;;;;;10.45;9.55;;;4.20;99.90;;;;;;5059607;28;20293;-76
2023/12/01 11:47:13;;;;;;;10.23;9.32;;;4.20;99.90;;;;;;5071608;28;20195;-77
2023/12/01 11:49:43;;;;;;;9.77;8.98;;;4.20;99.90;;;;;;5069363;28;20224;-78
2023/12/01 11:52:13;;;;;;;10.82;9.82;;;4.20;99.90;;;;;;5072552;28;20221;-78
2023/12/01 11:54:41;;;;;;;10.23;9.32;;;4.20;99.90;;;;;;5068497;28;20232;-77
2023/12/01 11:57:10;;;;;;;10.20;9.30;;;4.20;99.90;;;;;;5071924;28;20205;-78
2023/12/01 11:59:37;;;;;;;9.48;8.57;;;4.30;99.90;;;;;;5074607;28;20198;-77
2023/12/01 12:02:04;;;;;;;8.80;8.10;;;4.30;99.90;;;;;;5067995;28;20226;-77
2023/12/01 12:04:34;;;;;;;10.02;9.23;;;4.40;99.90;;;;;;5068868;28;20736;-76
2023/12/01 12:07:03;;;;;;;10.32;9.43;;;4.40;99.90;;;;;;5063871;28;20202;-77
2023/12/01 12:09:32;;;;;;;9.15;8.45;;;4.30;99.90;;;;;;5067858;28;20229;-77
2023/12/01 12:12:01;;;;;;;10.50;9.60;;;4.30;99.90;;;;;;5064427;28;20222;-77
2023/12/01 12:14:30;;;;;;;10.20;9.38;;;4.30;99.90;;;;;;5066754;28;20202;-77
2023/12/01 12:16:59;;;;;;;9.68;8.88;;;4.30;99.90;;;;;;5064655;28;20206;-77
2023/12/01 12:19:26;;;;;;;9.30;8.50;;;4.30;99.90;;;;;;5070177;28;20214;-78
2023/12/01 12:21:55;;;;;;;9.77;8.98;;;4.30;99.90;;;;;;5061788;28;20454;-78
2023/12/01 12:24:22;;;;;;;10.20;9.30;;;4.30;99.90;;;;;;5048129;28;20198;-77
2023/12/01 12:26:57;;;;;;;9.00;8.30;;;4.20;99.90;;;;;;5062968;28;20299;-77
2023/12/01 12:29:24;;;;;;;9.85;9.00;;;4.10;99.90;;;;;;5063483;28;20715;-76
2023/12/01 12:31:52;;;;;;;9.15;8.45;;;4.10;99.90;;;;;;5066035;28;20225;-77
2023/12/01 12:34:19;;;;;;;8.82;8.20;;;4.20;99.90;;;;;;5055224;28;20206;-77
2023/12/01 12:36:50;;;;;;;8.75;8.15;;;4.20;99.90;;;;;;5059635;28;20263;-77
2023/12/01 12:39:19;;;;;;;7.22;6.50;;;4.10;99.90;;;;;;5058949;28;20221;-76
2023/12/01 12:41:52;;;;;;;7.20;6.65;;;4.10;99.90;;;;;;5064016;28;20299;-77
2023/12/01 12:44:20;;;;;;;7.60;7.00;;;4.00;99.90;;;;;;5058088;28;20244;-77
2023/12/01 12:46:58;;;;;;;7.05;6.55;;;4.10;99.90;;;;;;5054816;28;20226;-76
2023/12/01 12:49:26;;;;;;;7.03;6.50;;;4.10;99.90;;;;;;5061038;28;20230;-78
2023/12/01 12:51:53;;;;;;;6.88;6.38;;;4.10;99.90;;;;;;5063721;28;20309;-78
2023/12/01 12:54:22;;;;;;;6.80;6.30;;;4.20;99.90;;;;;;5066366;28;20198;-77
2023/12/01 12:56:49;;;;;;;7.28;6.35;;;4.20;99.90;;;;;;5055396;28;20195;-77
2023/12/01 12:59:16;;;;;;;8.23;7.35;;;4.20;99.90;;;;;;5048001;28;20774;-77
2023/12/01 13:01:44;;;;;;;6.95;6.45;;;4.20;99.90;;;;;;5059137;28;20225;-78